Time;durP1;ratioP1;P1;durP2;ratioP2;P2;SDS_P1;SDS_P2;PMS_P1;PMS_P2;Temp;Humidity;BMP_temperature;BMP_pressure;BME280_temperature;BME280_humidity;BME280_pressure;Samples;Min_cycle;Max_cycle;Signal;HPM_P1;HPM_P2
2021/07/20 00:00:04;;;;;;;12.85;3.80;;;43.90;25.20;;;;;;5064696;28;20080;-65
2021/07/20 00:02:46;;;;;;;8.57;2.80;;;44.00;26.20;;;;;;5066505;28;20069;-66
2021/07/20 00:05:20;;;;;;;22.10;3.33;;;44.00;25.60;;;;;;5063862;28;20080;-65
2021/07/20 00:07:48;;;;;;;9.27;2.55;;;44.00;25.70;;;;;;5064828;28;20076;-66
2021/07/20 00:10:50;;;;;;;15.32;3.00;;;43.80;26.00;;;;;;5068906;28;20592;-66
2021/07/20 00:13:17;;;;;;;9.43;2.80;;;43.80;26.00;;;;;;5057189;28;20105;-66
2021/07/20 00:15:44;;;;;;;8.68;2.40;;;43.50;26.20;;;;;;5067258;28;20116;-66
2021/07/20 00:18:14;;;;;;;10.88;2.78;;;43.30;26.70;;;;;;5048950;28;20089;-65
2021/07/20 00:20:42;;;;;;;13.35;2.80;;;43.20;26.70;;;;;;5059653;28;20336;-65
2021/07/20 00:23:09;;;;;;;10.02;2.95;;;43.10;27.00;;;;;;5061024;28;20168;-65
2021/07/20 00:25:35;;;;;;;15.10;2.50;;;43.10;27.10;;;;;;5067972;28;20077;-66
2021/07/20 00:28:02;;;;;;;9.35;2.40;;;43.10;27.40;;;;;;5068757;28;20109;-65
2021/07/20 00:30:29;;;;;;;12.93;2.97;;;43.00;27.50;;;;;;5060247;28;20069;-65
2021/07/20 00:32:56;;;;;;;12.15;2.90;;;43.10;27.40;;;;;;5066445;28;20070;-66
2021/07/20 00:35:23;;;;;;;13.70;3.20;;;43.10;26.90;;;;;;5068413;28;20141;-65
2021/07/20 00:37:53;;;;;;;7.88;3.15;;;43.00;27.50;;;;;;5063018;28;20101;-66
2021/07/20 00:40:20;;;;;;;9.80;3.00;;;;;;;;;;5065534;28;20024;-66
2021/07/20 00:42:47;;;;;;;10.68;2.60;;;;;;;;;;5063663;28;20021;-66
2021/07/20 00:45:16;;;;;;;13.68;3.15;;;42.70;34.30;;;;;;5065376;28;20021;-67
2021/07/20 00:47:44;;;;;;;12.25;2.60;;;;;;;;;;5060539;28;20028;-65
2021/07/20 00:50:13;;;;;;;12.05;2.72;;;42.50;49.90;;;;;;5062694;28;20505;-67
2021/07/20 00:52:39;;;;;;;22.80;2.65;;;42.70;34.10;;;;;;5066618;28;20020;-66
2021/07/20 00:55:08;;;;;;;12.05;2.55;;;42.50;61.70;;;;;;5066322;28;20486;-66
2021/07/20 00:57:35;;;;;;;8.98;2.10;;;42.50;27.00;;;;;;5063635;28;20081;-65
2021/07/20 01:00:04;;;;;;;7.68;1.90;;;42.40;30.20;;;;;;5069341;28;20157;-65
2021/07/20 01:02:30;;;;;;;14.82;2.22;;;42.40;27.40;;;;;;5043851;28;20040;-66
2021/07/20 01:04:57;;;;;;;14.95;2.28;;;42.30;27.70;;;;;;5048046;28;20445;-65
2021/07/20 01:07:26;;;;;;;12.07;2.78;;;42.30;27.70;;;;;;5058477;28;20486;-66
2021/07/20 01:09:54;;;;;;;14.43;3.30;;;42.30;27.80;;;;;;5064241;28;20081;-66
2021/07/20 01:12:22;;;;;;;11.27;2.95;;;42.10;27.70;;;;;;5062965;28;20073;-66
2021/07/20 01:14:50;;;;;;;21.15;3.47;;;42.00;46.80;;;;;;5064334;28;20555;-66
2021/07/20 01:17:19;;;;;;;28.90;4.40;;;41.80;53.60;;;;;;5063595;28;20078;-65
2021/07/20 01:19:54;;;;;;;17.88;4.57;;;41.90;38.00;;;;;;5064786;28;20069;-66
2021/07/20 01:22:30;;;;;;;26.25;5.72;;;41.70;27.20;;;;;;5058416;28;20044;-65
2021/07/20 01:24:57;;;;;;;22.10;5.93;;;41.70;27.80;;;;;;5064172;28;20598;-65
2021/07/20 01:27:24;;;;;;;15.23;4.28;;;41.60;27.80;;;;;;5064754;28;20104;-65
2021/07/20 01:29:51;;;;;;;17.73;4.80;;;41.50;27.90;;;;;;5059208;28;20080;-67
2021/07/20 01:32:20;;;;;;;26.60;5.88;;;41.40;28.00;;;;;;5057662;28;20074;-67
2021/07/20 01:34:49;;;;;;;24.23;5.45;;;41.20;28.20;;;;;;5060074;28;20124;-65
2021/07/20 01:37:18;;;;;;;18.33;6.38;;;41.20;28.10;;;;;;5062052;28;20408;-66
2021/07/20 01:39:45;;;;;;;19.70;6.78;;;41.10;28.10;;;;;;5060909;28;20087;-66
2021/07/20 01:42:13;;;;;;;21.73;6.93;;;41.00;28.30;;;;;;5064743;28;20073;-67
2021/07/20 01:44:40;;;;;;;21.27;5.88;;;41.00;28.10;;;;;;5062913;28;20140;-65
2021/07/20 01:47:08;;;;;;;18.35;6.70;;;40.90;28.10;;;;;;5061742;28;20081;-67
2021/07/20 01:49:35;;;;;;;22.92;5.60;;;40.80;28.20;;;;;;5066748;28;20538;-67
2021/07/20 01:52:02;;;;;;;28.50;5.70;;;40.70;28.30;;;;;;5064123;28;20081;-66
2021/07/20 01:54:29;;;;;;;14.25;4.57;;;40.70;28.50;;;;;;5061506;28;20133;-67
2021/07/20 01:56:56;;;;;;;28.20;5.53;;;40.70;28.40;;;;;;5065401;28;20119;-68
2021/07/20 01:59:23;;;;;;;11.63;5.00;;;40.80;28.10;;;;;;5069393;28;20210;-67
2021/07/20 02:02:24;;;;;;;15.77;6.13;;;41.10;27.60;;;;;;5072610;28;20065;-67
2021/07/20 02:10:10;;;;;;;18.30;2.78;;;40.70;27.90;;;;;;5063572;28;20130;-66
2021/07/20 02:12:40;;;;;;;14.43;3.85;;;40.60;28.30;;;;;;5065523;28;20077;-67
2021/07/20 02:15:08;;;;;;;15.57;3.85;;;40.40;28.40;;;;;;5065540;28;20496;-67
2021/07/20 02:17:39;;;;;;;12.35;3.35;;;40.20;28.50;;;;;;5065468;28;20471;-66
2021/07/20 02:20:12;;;;;;;10.25;2.97;;;40.10;28.70;;;;;;5053105;28;20092;-67
2021/07/20 02:22:39;;;;;;;9.07;2.85;;;40.00;28.60;;;;;;5065405;28;20148;-69
2021/07/20 02:25:09;;;;;;;19.02;3.00;;;39.90;28.70;;;;;;5067686;28;20148;-67
2021/07/20 02:27:36;;;;;;;18.73;4.07;;;39.80;28.70;;;;;;5064166;28;20078;-67
2021/07/20 02:30:19;;;;;;;28.60;5.07;;;39.70;28.80;;;;;;5065608;28;20163;-66
2021/07/20 02:32:47;;;;;;;17.80;4.30;;;39.70;28.90;;;;;;5045640;28;20070;-65
2021/07/20 02:35:21;;;;;;;17.63;3.80;;;39.60;29.10;;;;;;5066903;28;20163;-66
2021/07/20 02:37:50;;;;;;;19.23;3.72;;;39.50;29.10;;;;;;5068502;28;20076;-66
2021/07/20 02:40:25;;;;;;;20.67;4.03;;;39.40;29.10;;;;;;5064934;28;20430;-66
2021/07/20 02:42:54;;;;;;;22.85;4.70;;;39.40;29.30;;;;;;5066762;28;20151;-66
2021/07/20 02:45:21;;;;;;;19.27;4.47;;;39.40;29.30;;;;;;5064198;28;20072;-66
2021/07/20 02:47:50;;;;;;;25.48;5.57;;;39.30;29.20;;;;;;5071553;28;20160;-66
2021/07/20 02:50:17;;;;;;;29.30;6.00;;;39.50;47.20;;;;;;5070457;28;20508;-66
2021/07/20 02:52:47;;;;;;;27.48;6.38;;;;;;;;;;5065503;28;20073;-66
2021/07/20 02:55:16;;;;;;;29.60;7.03;;;38.90;47.30;;;;;;5069564;28;20107;-67
2021/07/20 02:57:44;;;;;;;19.58;4.28;;;38.90;31.40;;;;;;5048725;28;20028;-66
2021/07/20 03:00:12;;;;;;;10.30;2.90;;;;;;;;;;5060399;28;20052;-67
2021/07/20 03:02:44;;;;;;;18.20;3.22;;;38.80;45.20;;;;;;5065497;28;20048;-66
2021/07/20 03:05:12;;;;;;;13.88;2.90;;;38.80;29.10;;;;;;5065056;28;20021;-66
2021/07/20 03:07:42;;;;;;;19.58;3.53;;;38.60;33.90;;;;;;5062716;28;20176;-66
2021/07/20 03:10:10;;;;;;;17.83;3.30;;;41.20;30.00;;;;;;5066722;28;20041;-67
2021/07/20 03:12:40;;;;;;;19.05;2.90;;;38.40;47.90;;;;;;5063567;28;20082;-66
2021/07/20 03:15:07;;;;;;;20.42;2.63;;;;;;;;;;5069029;28;20081;-65
2021/07/20 03:17:34;;;;;;;16.17;2.88;;;38.60;28.20;;;;;;5066812;28;20024;-65
2021/07/20 03:20:03;;;;;;;16.25;3.50;;;38.60;28.20;;;;;;5068092;28;20078;-66
2021/07/20 03:22:32;;;;;;;25.00;4.88;;;38.50;28.10;;;;;;5066946;28;20069;-66
2021/07/20 03:25:01;;;;;;;26.02;8.23;;;38.40;28.60;;;;;;5033453;28;20073;-66
2021/07/20 03:27:31;;;;;;;39.60;11.75;;;38.40;28.80;;;;;;5059691;28;20116;-65
2021/07/20 03:30:00;;;;;;;26.35;9.30;;;38.30;28.90;;;;;;5066640;28;20469;-66
2021/07/20 03:32:28;;;;;;;31.88;9.02;;;38.30;29.10;;;;;;5068776;28;20073;-66
2021/07/20 03:34:55;;;;;;;29.25;8.77;;;38.20;29.10;;;;;;5065312;28;20166;-66
2021/07/20 03:37:23;;;;;;;24.17;7.25;;;38.10;29.20;;;;;;5066407;28;20077;-66
2021/07/20 03:39:55;;;;;;;27.48;8.38;;;38.10;29.40;;;;;;5029403;28;20077;-66
2021/07/20 03:42:24;;;;;;;28.42;8.82;;;38.10;29.40;;;;;;5059327;28;20073;-65
2021/07/20 03:44:52;;;;;;;39.30;10.95;;;38.00;29.50;;;;;;5063833;28;20069;-65
2021/07/20 03:47:19;;;;;;;44.38;12.57;;;37.90;29.70;;;;;;5062583;28;20077;-65
2021/07/20 03:49:47;;;;;;;45.22;12.70;;;37.90;29.90;;;;;;5070562;28;20117;-66
2021/07/20 03:52:15;;;;;;;42.92;10.43;;;37.80;30.00;;;;;;5046849;28;20373;-66
2021/07/20 03:54:42;;;;;;;36.35;10.20;;;37.80;30.40;;;;;;5047474;28;20178;-65
2021/07/20 03:57:13;;;;;;;37.85;10.98;;;37.80;29.90;;;;;;5065983;28;20082;-64
2021/07/20 03:59:40;;;;;;;32.88;10.30;;;37.80;29.80;;;;;;5060072;28;20088;-66
2021/07/20 04:02:09;;;;;;;35.40;10.15;;;37.80;29.70;;;;;;5064390;28;20080;-65
2021/07/20 04:04:40;;;;;;;29.00;9.63;;;37.70;29.70;;;;;;5062209;28;20115;-65
2021/07/20 04:07:14;;;;;;;38.75;9.55;;;37.70;29.80;;;;;;5065119;28;20068;-65
2021/07/20 04:09:41;;;;;;;30.88;7.80;;;37.60;30.00;;;;;;5044467;28;20530;-65
2021/07/20 04:12:11;;;;;;;28.13;7.13;;;37.50;30.50;;;;;;5061772;28;20068;-65
2021/07/20 04:14:38;;;;;;;24.40;7.10;;;37.50;30.60;;;;;;5066510;28;20458;-65
2021/07/20 04:17:05;;;;;;;22.02;7.60;;;37.40;31.10;;;;;;5061466;28;20069;-65
2021/07/20 04:19:33;;;;;;;28.15;8.45;;;37.40;31.60;;;;;;5066769;28;20088;-66
2021/07/20 04:22:00;;;;;;;25.08;5.93;;;37.30;31.80;;;;;;5065062;28;20073;-65
2021/07/20 04:24:28;;;;;;;19.83;5.60;;;37.20;31.90;;;;;;5065572;28;20238;-65
2021/07/20 04:26:55;;;;;;;22.38;5.38;;;37.20;31.60;;;;;;5061387;28;20138;-65
2021/07/20 04:29:26;;;;;;;19.20;5.30;;;37.20;31.60;;;;;;5065006;28;20177;-65
2021/07/20 04:31:55;;;;;;;27.05;4.68;;;37.10;31.70;;;;;;5065321;28;20514;-65
2021/07/20 04:34:22;;;;;;;26.52;5.07;;;37.10;31.70;;;;;;5059212;28;20471;-66
2021/07/20 04:36:49;;;;;;;14.35;3.53;;;37.00;31.80;;;;;;5066008;28;20072;-65
2021/07/20 04:39:16;;;;;;;17.50;3.97;;;37.00;31.70;;;;;;5062350;28;20072;-66
2021/07/20 04:41:43;;;;;;;15.38;3.72;;;36.90;31.70;;;;;;5065258;28;20163;-66
2021/07/20 04:44:10;;;;;;;16.83;4.65;;;36.90;32.00;;;;;;5065368;28;20079;-67
2021/07/20 04:46:37;;;;;;;27.95;4.15;;;36.90;32.10;;;;;;5046480;28;20079;-66
2021/07/20 04:49:05;;;;;;;11.45;3.13;;;36.80;32.40;;;;;;5066445;28;20073;-66
2021/07/20 04:51:33;;;;;;;14.57;3.00;;;36.70;32.50;;;;;;5062937;28;20489;-63
2021/07/20 04:54:04;;;;;;;14.18;3.30;;;36.60;32.80;;;;;;5060997;28;20105;-63
2021/07/20 04:56:31;;;;;;;16.05;4.32;;;36.70;32.70;;;;;;5063835;28;20165;-64
2021/07/20 04:58:58;;;;;;;23.95;5.07;;;36.70;32.40;;;;;;5061083;28;20084;-63
2021/07/20 05:01:25;;;;;;;12.70;4.13;;;36.70;32.40;;;;;;5065543;28;20074;-64
2021/07/20 05:03:54;;;;;;;19.33;3.50;;;36.70;32.50;;;;;;5064144;28;20088;-61
2021/07/20 05:06:22;;;;;;;21.23;3.97;;;36.70;32.20;;;;;;5062555;28;20077;-63
2021/07/20 05:08:51;;;;;;;14.25;3.38;;;36.70;32.30;;;;;;5065374;28;20122;-64
2021/07/20 05:11:20;;;;;;;11.70;3.50;;;36.60;32.30;;;;;;5067210;28;20137;-64
2021/07/20 05:13:47;;;;;;;22.80;4.13;;;36.60;32.50;;;;;;5061927;28;20146;-63
2021/07/20 05:16:14;;;;;;;13.52;4.65;;;36.60;32.70;;;;;;5066780;28;20077;-63
2021/07/20 05:18:44;;;;;;;15.00;4.18;;;36.60;33.00;;;;;;5066326;28;20519;-63
2021/07/20 05:21:12;;;;;;;17.90;4.25;;;36.50;33.20;;;;;;5070883;28;20080;-63
2021/07/20 05:23:50;;;;;;;16.70;4.13;;;36.30;33.30;;;;;;5062729;28;20645;-64
2021/07/20 05:26:20;;;;;;;10.43;3.67;;;36.30;33.40;;;;;;5046152;28;20108;-62
2021/07/20 05:28:48;;;;;;;21.48;4.10;;;36.10;33.30;;;;;;5061624;28;20073;-64
2021/07/20 05:31:15;;;;;;;18.90;3.85;;;36.10;33.50;;;;;;5063428;28;20077;-63
2021/07/20 05:33:43;;;;;;;11.63;3.78;;;36.00;33.40;;;;;;5060907;28;20242;-64
2021/07/20 05:36:11;;;;;;;17.55;4.05;;;36.00;33.50;;;;;;5060439;28;20082;-63
2021/07/20 05:38:39;;;;;;;29.52;3.88;;;36.00;33.30;;;;;;5064729;28;20070;-64
2021/07/20 05:41:05;;;;;;;16.30;3.45;;;35.90;33.30;;;;;;5066346;28;20068;-63
2021/07/20 05:43:33;;;;;;;14.88;3.40;;;35.90;33.30;;;;;;5060770;28;20215;-63
2021/07/20 05:46:02;;;;;;;16.10;3.42;;;35.90;33.40;;;;;;5040854;28;20088;-62
2021/07/20 05:48:29;;;;;;;12.73;3.17;;;35.90;33.30;;;;;;5061049;28;20069;-62
2021/07/20 05:51:00;;;;;;;14.20;3.85;;;35.80;33.40;;;;;;5063540;28;20116;-62
2021/07/20 05:53:31;;;;;;;9.85;3.65;;;35.80;33.40;;;;;;5066670;28;20521;-63
2021/07/20 05:56:01;;;;;;;18.63;4.57;;;35.80;33.40;;;;;;5042473;28;20149;-62
2021/07/20 05:58:28;;;;;;;17.75;4.93;;;35.70;33.50;;;;;;5065301;28;20097;-63
2021/07/20 06:00:59;;;;;;;16.13;4.80;;;35.70;33.50;;;;;;5063607;28;20081;-63
2021/07/20 06:03:26;;;;;;;23.65;5.35;;;35.70;33.40;;;;;;5063526;28;20084;-63
2021/07/20 06:05:56;;;;;;;21.70;4.50;;;35.70;33.40;;;;;;5063094;28;20080;-63
2021/07/20 06:08:25;;;;;;;18.35;4.50;;;35.70;33.40;;;;;;5060459;28;20085;-62
2021/07/20 06:11:00;;;;;;;13.45;4.07;;;35.70;33.40;;;;;;5063716;28;20608;-63
2021/07/20 06:13:36;;;;;;;20.25;4.13;;;35.60;33.30;;;;;;5060275;28;20096;-63
2021/07/20 06:16:07;;;;;;;19.02;4.13;;;35.60;33.50;;;;;;5064722;28;20088;-63
2021/07/20 06:18:38;;;;;;;12.93;4.20;;;35.60;33.50;;;;;;5062138;28;20084;-63
2021/07/20 06:21:07;;;;;;;15.70;4.40;;;35.50;33.70;;;;;;5066197;28;20573;-63
2021/07/20 06:23:39;;;;;;;21.27;4.80;;;35.40;33.80;;;;;;5062384;28;20077;-63
2021/07/20 06:26:06;;;;;;;18.30;3.85;;;35.40;34.10;;;;;;5063351;28;20537;-64
2021/07/20 06:28:35;;;;;;;22.80;3.75;;;35.40;34.30;;;;;;5062697;28;20873;-62
2021/07/20 06:31:02;;;;;;;14.13;4.82;;;35.30;34.50;;;;;;5060987;28;20094;-62
2021/07/20 06:33:29;;;;;;;18.02;5.80;;;35.30;34.60;;;;;;5065078;28;20100;-61
2021/07/20 06:35:56;;;;;;;15.57;5.88;;;35.30;34.80;;;;;;5061080;28;20539;-63
2021/07/20 06:38:24;;;;;;;15.57;5.57;;;35.30;34.70;;;;;;5065115;28;20230;-61
2021/07/20 06:40:53;;;;;;;18.85;5.50;;;35.30;34.80;;;;;;5062347;28;20136;-62
2021/07/20 06:43:20;;;;;;;15.00;5.03;;;35.20;34.80;;;;;;5062949;28;20434;-63
2021/07/20 06:45:48;;;;;;;12.65;4.70;;;35.30;34.70;;;;;;5065195;28;20078;-62
2021/07/20 06:48:18;;;;;;;14.25;4.97;;;35.30;35.30;;;;;;5071173;28;20555;-62
2021/07/20 06:50:46;;;;;;;15.90;5.43;;;35.30;34.70;;;;;;5068123;28;20113;-62
2021/07/20 06:53:14;;;;;;;24.45;7.40;;;35.20;34.70;;;;;;5066987;28;20073;-63
2021/07/20 06:55:50;;;;;;;16.65;6.35;;;35.20;34.80;;;;;;5066799;28;20089;-62
2021/07/20 06:58:17;;;;;;;;;;;35.20;35.00;;;;;;5062497;28;20069;-63
2021/07/20 07:00:47;;;;;;;;;;;35.20;35.00;;;;;;5070181;28;19972;-61
2021/07/20 07:03:16;;;;;;;21.75;5.22;;;35.20;35.00;;;;;;5064116;28;19957;-63
2021/07/20 07:05:44;;;;;;;17.17;4.53;;;35.10;35.10;;;;;;5064112;28;20081;-62
2021/07/20 07:08:12;;;;;;;13.77;4.72;;;35.10;35.10;;;;;;5064792;28;20077;-62
2021/07/20 07:10:39;;;;;;;13.98;5.32;;;35.10;35.10;;;;;;5067483;28;20096;-62
2021/07/20 07:13:08;;;;;;;13.70;5.20;;;35.10;35.20;;;;;;5067542;28;20156;-62
2021/07/20 07:15:39;;;;;;;10.18;4.22;;;35.10;35.20;;;;;;5065349;28;20073;-62
2021/07/20 07:18:06;;;;;;;15.95;5.57;;;35.10;35.20;;;;;;5064965;28;20065;-62
2021/07/20 07:20:33;;;;;;;17.25;5.15;;;35.00;36.00;;;;;;5067552;28;20083;-62
2021/07/20 07:23:02;;;;;;;15.68;4.80;;;34.90;35.50;;;;;;5067603;28;20561;-62
2021/07/20 07:25:29;;;;;;;13.32;3.90;;;34.90;35.80;;;;;;5064506;28;20081;-62
2021/07/20 07:27:57;;;;;;;10.32;3.08;;;34.90;36.20;;;;;;5044343;28;20419;-62
2021/07/20 07:30:24;;;;;;;9.25;2.40;;;34.80;36.80;;;;;;5063984;28;20085;-63
2021/07/20 07:32:51;;;;;;;10.35;2.33;;;34.70;37.30;;;;;;5063562;28;20482;-62
2021/07/20 07:35:18;;;;;;;7.70;1.90;;;34.70;37.60;;;;;;5065491;28;20561;-62
2021/07/20 07:37:46;;;;;;;10.45;2.08;;;34.70;37.90;;;;;;5067325;28;20085;-62
2021/07/20 07:40:14;;;;;;;9.18;2.00;;;34.60;38.20;;;;;;5066370;28;20530;-62
2021/07/20 07:42:43;;;;;;;10.90;2.00;;;34.60;38.70;;;;;;5067513;28;20064;-62
2021/07/20 07:45:12;;;;;;;10.38;2.20;;;34.50;39.20;;;;;;5066901;28;20069;-62
2021/07/20 07:47:42;;;;;;;9.10;2.70;;;34.50;39.70;;;;;;5066107;28;20483;-62
2021/07/20 07:50:09;;;;;;;11.70;2.70;;;34.50;40.20;;;;;;5065004;28;20115;-62
2021/07/20 07:52:39;;;;;;;9.93;2.30;;;34.40;40.30;;;;;;5064106;28;20426;-62
2021/07/20 07:55:09;;;;;;;8.23;2.35;;;34.40;40.60;;;;;;5067288;28;20143;-62
2021/07/20 07:57:36;;;;;;;12.45;2.95;;;34.30;41.00;;;;;;5048883;28;20073;-61
2021/07/20 08:00:07;;;;;;;9.02;2.50;;;34.30;41.30;;;;;;5065261;28;20078;-63
2021/07/20 08:02:35;;;;;;;12.52;3.00;;;34.20;42.20;;;;;;5063022;28;20434;-62
2021/07/20 08:05:04;;;;;;;12.70;2.95;;;34.10;42.10;;;;;;5061885;28;20443;-62
2021/07/20 08:07:33;;;;;;;11.00;3.00;;;34.00;42.40;;;;;;5061713;28;20077;-62
2021/07/20 08:10:00;;;;;;;11.13;3.47;;;34.00;42.50;;;;;;5061688;28;20081;-62
2021/07/20 08:12:28;;;;;;;17.50;4.07;;;34.00;42.80;;;;;;5064879;28;20065;-62
2021/07/20 08:14:55;;;;;;;14.93;4.68;;;34.00;43.10;;;;;;5062772;28;20108;-60
2021/07/20 08:17:25;;;;;;;14.20;5.05;;;34.00;43.30;;;;;;5066703;28;20092;-60
2021/07/20 08:19:53;;;;;;;18.42;5.03;;;33.90;43.60;;;;;;5064938;28;20116;-59
2021/07/20 08:22:22;;;;;;;17.38;4.63;;;33.90;43.80;;;;;;5068013;28;20073;-61
2021/07/20 08:25:05;;;;;;;14.07;4.63;;;33.80;43.90;;;;;;5065122;28;20527;-60
2021/07/20 08:27:40;;;;;;;89.50;7.75;;;33.80;44.00;;;;;;5065136;28;20093;-61
2021/07/20 08:30:08;;;;;;;16.80;4.65;;;33.80;44.20;;;;;;5063356;28;20095;-61
2021/07/20 08:32:41;;;;;;;19.63;4.90;;;33.70;44.40;;;;;;5062175;28;20130;-61
2021/07/20 08:35:14;;;;;;;14.27;4.60;;;33.60;44.50;;;;;;5065254;28;20097;-61
2021/07/20 08:37:42;;;;;;;13.13;4.75;;;33.60;44.70;;;;;;5064000;28;20105;-61
2021/07/20 08:40:23;;;;;;;49.00;6.18;;;33.60;44.80;;;;;;5063790;28;20493;-62
2021/07/20 08:43:08;;;;;;;16.38;4.53;;;33.50;44.90;;;;;;5063776;28;20522;-61
2021/07/20 08:46:08;;;;;;;14.40;4.68;;;33.50;45.20;;;;;;5063186;28;20075;-60
2021/07/20 08:48:43;;;;;;;16.17;4.85;;;33.40;45.20;;;;;;5065364;28;20085;-60
2021/07/20 08:51:18;;;;;;;15.00;4.87;;;33.30;45.60;;;;;;5064705;28;20518;-61
2021/07/20 08:53:53;;;;;;;16.05;4.22;;;33.20;45.90;;;;;;5060465;28;20359;-61
2021/07/20 08:56:22;;;;;;;13.25;4.30;;;33.20;46.30;;;;;;5063699;28;20123;-61
2021/07/20 08:59:02;;;;;;;18.60;4.25;;;33.10;46.80;;;;;;5061294;28;20073;-61
2021/07/20 09:01:52;;;;;;;17.20;4.70;;;33.20;46.80;;;;;;5063851;28;20418;-61
2021/07/20 09:04:40;;;;;;;14.48;5.13;;;33.10;47.10;;;;;;5068960;28;20519;-61
2021/07/20 09:07:12;;;;;;;22.45;6.60;;;33.10;47.60;;;;;;5064184;28;20069;-61
2021/07/20 09:09:47;;;;;;;28.98;7.95;;;33.00;48.10;;;;;;5068120;28;20089;-61
2021/07/20 09:12:28;;;;;;;23.65;6.05;;;33.00;48.70;;;;;;5065584;28;20458;-60
2021/07/20 09:15:13;;;;;;;19.48;6.30;;;33.00;49.50;;;;;;5064303;28;20243;-61
2021/07/20 09:17:48;;;;;;;20.17;5.57;;;33.00;50.40;;;;;;5065459;28;20131;-61
2021/07/20 09:20:22;;;;;;;14.80;4.55;;;33.00;50.70;;;;;;5057780;28;20163;-61
2021/07/20 09:22:53;;;;;;;18.55;4.53;;;33.00;51.60;;;;;;5066636;28;20076;-60
2021/07/20 09:25:42;;;;;;;16.75;4.20;;;32.90;51.60;;;;;;5066224;28;20068;-61
2021/07/20 09:28:25;;;;;;;13.23;3.83;;;32.80;51.90;;;;;;5063757;28;20130;-61
2021/07/20 09:30:54;;;;;;;12.95;3.90;;;32.80;52.30;;;;;;5043625;28;20077;-61
2021/07/20 09:33:31;;;;;;;17.88;4.50;;;32.80;53.10;;;;;;5061798;28;20069;-61
2021/07/20 09:36:17;;;;;;;15.55;4.18;;;32.80;53.40;;;;;;5063870;28;20851;-59
2021/07/20 09:38:58;;;;;;;13.32;4.20;;;32.80;53.60;;;;;;5066487;28;20131;-61
2021/07/20 09:41:52;;;;;;;13.52;4.28;;;32.70;54.00;;;;;;5075333;28;20085;-61
2021/07/20 09:44:37;;;;;;;13.65;4.22;;;;;;;;;;5065219;28;20104;-61
2021/07/20 09:47:10;;;;;;;13.95;4.35;;;;;;;;;;5069944;28;20054;-61
2021/07/20 09:49:37;;;;;;;14.52;3.65;;;;;;;;;;5065770;28;20191;-61
2021/07/20 09:52:20;;;;;;;10.75;3.50;;;;;;;;;;5063250;28;20045;-62
2021/07/20 09:54:54;;;;;;;13.45;3.63;;;;;;;;;;5067599;28;20051;-61
2021/07/20 09:57:38;;;;;;;14.32;3.30;;;;;;;;;;5057888;28;20052;-62
2021/07/20 10:00:05;;;;;;;9.10;3.38;;;;;;;;;;5064366;28;20032;-60
2021/07/20 10:02:34;;;;;;;10.75;3.55;;;;;;;;;;5065771;28;20086;-61
2021/07/20 10:05:21;;;;;;;13.30;3.47;;;;;;;;;;5063986;28;20071;-61
2021/07/20 10:07:55;;;;;;;17.95;4.80;;;;;;;;;;5065808;28;20028;-62
2021/07/20 10:10:47;;;;;;;13.23;4.15;;;32.10;92.70;;;;;;5067201;28;20032;-62
2021/07/20 10:13:34;;;;;;;13.30;4.60;;;32.00;58.50;;;;;;5061627;28;20053;-61
2021/07/20 10:16:21;;;;;;;16.17;3.78;;;31.90;65.50;;;;;;5061754;28;20088;-62
2021/07/20 10:19:16;;;;;;;11.57;4.03;;;31.90;59.40;;;;;;5064382;28;20160;-62
2021/07/20 10:21:50;;;;;;;11.18;3.17;;;31.80;59.10;;;;;;5065774;28;20092;-62
2021/07/20 10:24:21;;;;;;;14.18;4.13;;;;;;;;;;5073155;28;20189;-61
2021/07/20 10:26:55;;;;;;;12.25;4.30;;;;;;;;;;5067793;28;20028;-61
2021/07/20 10:29:25;;;;;;;16.40;4.22;;;;;;;;;;5062157;28;20029;-61
2021/07/20 10:32:06;;;;;;;14.57;4.43;;;31.80;74.00;;;;;;5071264;28;20488;-62
2021/07/20 10:34:33;;;;;;;12.02;3.95;;;;;;;;;;5064411;28;20048;-61
2021/07/20 10:37:10;;;;;;;11.07;4.20;;;;;;;;;;5069514;28;20029;-62
2021/07/20 10:39:40;;;;;;;16.30;4.22;;;;;;;;;;5066558;28;20029;-61
2021/07/20 10:42:09;;;;;;;13.18;4.43;;;31.90;93.00;;;;;;5059769;28;20474;-61
2021/07/20 10:44:40;;;;;;;13.07;4.05;;;;;;;;;;5064920;28;20024;-62
2021/07/20 10:47:08;;;;;;;13.32;4.50;;;31.90;59.20;;;;;;5068373;28;20040;-62
2021/07/20 10:49:56;;;;;;;13.20;4.18;;;31.90;77.10;;;;;;5066301;28;20535;-62
2021/07/20 10:52:57;;;;;;;15.77;4.32;;;31.80;80.50;;;;;;5066646;28;20055;-62
2021/07/20 10:55:53;;;;;;;14.70;4.47;;;31.80;74.40;;;;;;5052268;28;20111;-62
2021/07/20 10:58:39;;;;;;;18.92;4.82;;;;;;;;;;5067505;28;20115;-62
2021/07/20 11:01:33;;;;;;;20.67;4.60;;;31.90;62.60;;;;;;5065973;28;20034;-61
2021/07/20 11:04:15;;;;;;;18.08;4.53;;;;;;;;;;5053096;28;20127;-62
2021/07/20 11:06:42;;;;;;;11.82;4.30;;;;;;;;;;5068104;28;20021;-62
2021/07/20 11:09:20;;;;;;;30.35;5.47;;;;;;;;;;5069026;28;20024;-61
2021/07/20 11:11:55;;;;;;;20.38;4.22;;;;;;;;;;5065667;28;20488;-61
2021/07/20 11:14:26;;;;;;;13.82;4.82;;;;;;;;;;5066085;28;20044;-62
2021/07/20 11:16:55;;;;;;;13.95;4.70;;;31.80;61.20;;;;;;5061856;28;20057;-61
2021/07/20 11:19:23;;;;;;;19.63;4.75;;;;;;;;;;5062063;28;20356;-62
2021/07/20 11:21:50;;;;;;;19.50;4.50;;;;;;;;;;5062614;28;20367;-61
2021/07/20 11:24:18;;;;;;;17.48;4.55;;;;;;;;;;5063566;28;20028;-62
2021/07/20 11:26:45;;;;;;;18.35;4.53;;;32.10;64.90;;;;;;5069169;28;20028;-62
2021/07/20 11:29:13;;;;;;;17.30;3.88;;;31.80;63.50;;;;;;5064064;28;20442;-62
2021/07/20 11:31:46;;;;;;;17.00;4.10;;;;;;;;;;5064094;28;20073;-62
2021/07/20 11:34:25;;;;;;;17.60;3.90;;;31.90;74.70;;;;;;5065027;28;20044;-62
2021/07/20 11:36:54;;;;;;;18.58;5.13;;;;;;;;;;5064669;28;20025;-62
2021/07/20 11:39:23;;;;;;;18.20;5.22;;;;;;;;;;5064613;28;20028;-62
2021/07/20 11:41:56;;;;;;;22.45;5.78;;;;;;;;;;5066636;28;20047;-61
2021/07/20 11:44:25;;;;;;;22.98;5.65;;;;;;;;;;5062160;28;20033;-61
2021/07/20 11:46:52;;;;;;;12.68;5.65;;;;;;;;;;5068082;28;20111;-61
2021/07/20 11:49:45;;;;;;;23.13;5.97;;;31.90;82.20;;;;;;5068542;28;20039;-62
2021/07/20 11:52:15;;;;;;;22.55;6.20;;;;;;;;;;5031185;28;20085;-61
2021/07/20 11:54:42;;;;;;;29.08;6.18;;;;;;;;;;5068281;28;20036;-62
2021/07/20 11:57:09;;;;;;;28.13;5.60;;;;;;;;;;5067002;28;20021;-63
2021/07/20 12:00:05;;;;;;;25.38;6.32;;;;;;;;;;5061826;28;20089;-62
2021/07/20 12:02:50;;;;;;;17.30;5.47;;;;;;;;;;4993692;28;20030;-62
2021/07/20 12:05:22;;;;;;;18.40;5.63;;;;;;;;;;5059833;28;20112;-62
2021/07/20 12:07:58;;;;;;;28.27;6.30;;;31.80;65.60;;;;;;5061990;28;20024;-61
2021/07/20 12:10:43;;;;;;;28.15;6.20;;;;;;;;;;5063356;28;20028;-61
2021/07/20 12:13:14;;;;;;;27.58;5.68;;;;;;;;;;5064788;28;20029;-61
2021/07/20 12:15:42;;;;;;;32.80;6.13;;;31.30;90.00;;;;;;5043291;28;20512;-62
2021/07/20 12:18:09;;;;;;;24.45;5.75;;;;;;;;;;5066225;28;20024;-62
2021/07/20 12:20:36;;;;;;;21.70;5.78;;;;;;;;;;5069654;28;20032;-61
2021/07/20 12:23:04;;;;;;;31.75;7.20;;;31.10;95.00;;;;;;5062044;28;20024;-62
2021/07/20 12:25:32;;;;;;;29.10;6.30;;;31.40;66.90;;;;;;5066151;28;20063;-62
2021/07/20 12:28:00;;;;;;;26.05;5.63;;;30.60;89.80;;;;;;5060707;28;20104;-62
2021/07/20 12:30:28;;;;;;;20.00;5.22;;;32.00;99.50;;;;;;5067656;28;20510;-62
2021/07/20 12:32:56;;;;;;;25.80;5.53;;;31.00;68.70;;;;;;5064842;28;20084;-63
2021/07/20 12:35:25;;;;;;;28.48;6.40;;;31.00;82.10;;;;;;5066430;28;20039;-62
2021/07/20 12:38:04;;;;;;;25.38;6.32;;;31.40;99.60;;;;;;5064062;28;20108;-63
2021/07/20 12:40:32;;;;;;;24.20;6.07;;;;;;;;;;5061175;28;20103;-62
2021/07/20 12:43:08;;;;;;;20.88;5.75;;;31.30;80.70;;;;;;5060682;28;20020;-62
2021/07/20 12:45:35;;;;;;;23.60;6.28;;;31.40;93.40;;;;;;5065542;28;20035;-63
2021/07/20 12:48:04;;;;;;;24.05;6.25;;;30.90;82.20;;;;;;5065730;28;20463;-62
2021/07/20 12:50:31;;;;;;;23.48;6.45;;;;;;;;;;5064322;28;20513;-62
2021/07/20 12:52:57;;;;;;;25.35;6.63;;;;;;;;;;5060857;28;20081;-62
2021/07/20 12:55:24;;;;;;;31.88;6.80;;;31.30;90.10;;;;;;5066623;28;20032;-62
2021/07/20 12:57:56;;;;;;;22.80;7.28;;;31.40;68.90;;;;;;5064605;28;20024;-62
2021/07/20 13:00:26;;;;;;;21.63;7.10;;;31.10;82.90;;;;;;5065120;28;20028;-62
2021/07/20 13:02:58;;;;;;;27.05;7.93;;;31.40;69.00;;;;;;5062260;28;20036;-62
2021/07/20 13:05:26;;;;;;;25.15;6.80;;;31.40;69.80;;;;;;5063593;28;20567;-61
2021/07/20 13:07:53;;;;;;;36.03;7.25;;;;;;;;;;5065778;28;20540;-61
2021/07/20 13:10:19;;;;;;;28.83;6.60;;;;;;;;;;5065180;28;20071;-62
2021/07/20 13:12:49;;;;;;;30.27;7.00;;;31.60;86.80;;;;;;5058835;28;20116;-62
2021/07/20 13:15:19;;;;;;;29.45;7.18;;;;;;;;;;5062031;28;20089;-62
2021/07/20 13:17:54;;;;;;;25.35;7.88;;;31.40;69.10;;;;;;5066530;28;20032;-62
2021/07/20 13:20:22;;;;;;;34.20;7.25;;;31.40;74.70;;;;;;5062288;28;20112;-62